Aviation Digital Data Service (ADDS)

Output produced by METARs form (0917 UTC 29 March 2017)
found at http://aviationweather.gov/adds/metars/
 
KLWB 290526Z 2906/3006 32005KT P6SM OVC025 
     FM290800 VRB03KT 4SM BR OVC015 
     FM291600 VRB03KT P6SM SCT025 
     FM300400 04004KT P6SM SCT050 
     FM300500 05004KT P6SM BKN015